sensor_id;sensor_type;location;lat;lon;timestamp;P1;durP1;ratioP1;P2;durP2;ratioP2
31746;SDS011;18319;48.974;8.462;2023-12-07T00:02:14;5.97;;;5.47;;
31746;SDS011;18319;48.974;8.462;2023-12-07T00:04:41;7.50;;;5.73;;
31746;SDS011;18319;48.974;8.462;2023-12-07T00:07:10;9.03;;;6.17;;
31746;SDS011;18319;48.974;8.462;2023-12-07T00:09:37;7.47;;;6.00;;
31746;SDS011;18319;48.974;8.462;2023-12-07T00:12:04;5.77;;;5.17;;
31746;SDS011;18319;48.974;8.462;2023-12-07T00:14:31;5.97;;;5.33;;
31746;SDS011;18319;48.974;8.462;2023-12-07T00:17:00;8.33;;;6.07;;
31746;SDS011;18319;48.974;8.462;2023-12-07T00:19:28;7.07;;;6.00;;
31746;SDS011;18319;48.974;8.462;2023-12-07T00:21:55;7.23;;;5.90;;
31746;SDS011;18319;48.974;8.462;2023-12-07T00:24:22;5.93;;;5.33;;
31746;SDS011;18319;48.974;8.462;2023-12-07T00:26:49;5.93;;;4.83;;
31746;SDS011;18319;48.974;8.462;2023-12-07T00:29:15;7.50;;;5.83;;
31746;SDS011;18319;48.974;8.462;2023-12-07T00:31:42;6.60;;;5.20;;
31746;SDS011;18319;48.974;8.462;2023-12-07T00:34:09;6.97;;;5.50;;
31746;SDS011;18319;48.974;8.462;2023-12-07T00:36:38;5.53;;;5.03;;
31746;SDS011;18319;48.974;8.462;2023-12-07T00:39:06;6.43;;;5.30;;
31746;SDS011;18319;48.974;8.462;2023-12-07T00:41:33;7.43;;;5.10;;
31746;SDS011;18319;48.974;8.462;2023-12-07T00:44:00;7.83;;;5.80;;
31746;SDS011;18319;48.974;8.462;2023-12-07T00:46:27;6.10;;;5.50;;
31746;SDS011;18319;48.974;8.462;2023-12-07T00:48:54;5.97;;;5.37;;
31746;SDS011;18319;48.974;8.462;2023-12-07T00:51:20;8.80;;;5.33;;
31746;SDS011;18319;48.974;8.462;2023-12-07T00:53:48;7.40;;;6.00;;
31746;SDS011;18319;48.974;8.462;2023-12-07T00:56:15;8.30;;;5.87;;
31746;SDS011;18319;48.974;8.462;2023-12-07T00:58:44;7.53;;;5.53;;
31746;SDS011;18319;48.974;8.462;2023-12-07T01:01:11;8.50;;;5.20;;
31746;SDS011;18319;48.974;8.462;2023-12-07T01:03:38;6.63;;;5.87;;
31746;SDS011;18319;48.974;8.462;2023-12-07T01:06:05;11.07;;;6.20;;
31746;SDS011;18319;48.974;8.462;2023-12-07T01:08:32;6.93;;;5.37;;
31746;SDS011;18319;48.974;8.462;2023-12-07T01:11:03;8.57;;;5.57;;
31746;SDS011;18319;48.974;8.462;2023-12-07T01:13:30;8.53;;;5.13;;
31746;SDS011;18319;48.974;8.462;2023-12-07T01:15:58;6.30;;;4.87;;
31746;SDS011;18319;48.974;8.462;2023-12-07T01:18:25;7.13;;;5.50;;
31746;SDS011;18319;48.974;8.462;2023-12-07T01:20:52;6.13;;;5.53;;
31746;SDS011;18319;48.974;8.462;2023-12-07T01:23:19;7.67;;;5.60;;
31746;SDS011;18319;48.974;8.462;2023-12-07T01:25:45;6.97;;;5.33;;
31746;SDS011;18319;48.974;8.462;2023-12-07T01:28:13;7.63;;;5.37;;
31746;SDS011;18319;48.974;8.462;2023-12-07T01:30:40;6.60;;;5.37;;
31746;SDS011;18319;48.974;8.462;2023-12-07T01:33:07;8.50;;;5.10;;
31746;SDS011;18319;48.974;8.462;2023-12-07T01:35:33;5.77;;;5.03;;
31746;SDS011;18319;48.974;8.462;2023-12-07T01:38:00;5.67;;;5.07;;
31746;SDS011;18319;48.974;8.462;2023-12-07T01:40:27;9.80;;;5.43;;
31746;SDS011;18319;48.974;8.462;2023-12-07T01:42:54;5.70;;;5.20;;
31746;SDS011;18319;48.974;8.462;2023-12-07T01:45:22;6.07;;;4.93;;
31746;SDS011;18319;48.974;8.462;2023-12-07T01:47:49;5.00;;;4.60;;
31746;SDS011;18319;48.974;8.462;2023-12-07T01:50:17;10.03;;;5.80;;
31746;SDS011;18319;48.974;8.462;2023-12-07T01:52:48;7.50;;;5.57;;
31746;SDS011;18319;48.974;8.462;2023-12-07T01:55:18;6.67;;;5.40;;
31746;SDS011;18319;48.974;8.462;2023-12-07T01:57:46;6.97;;;5.37;;
31746;SDS011;18319;48.974;8.462;2023-12-07T02:00:14;11.03;;;5.57;;
31746;SDS011;18319;48.974;8.462;2023-12-07T02:02:44;5.10;;;4.60;;
31746;SDS011;18319;48.974;8.462;2023-12-07T02:05:11;7.90;;;5.30;;
31746;SDS011;18319;48.974;8.462;2023-12-07T02:07:39;10.67;;;5.67;;
31746;SDS011;18319;48.974;8.462;2023-12-07T02:10:07;6.57;;;4.87;;
31746;SDS011;18319;48.974;8.462;2023-12-07T02:12:34;7.63;;;4.80;;
31746;SDS011;18319;48.974;8.462;2023-12-07T02:15:01;7.67;;;5.53;;
31746;SDS011;18319;48.974;8.462;2023-12-07T02:17:31;8.23;;;5.50;;
31746;SDS011;18319;48.974;8.462;2023-12-07T02:20:04;9.37;;;4.90;;
31746;SDS011;18319;48.974;8.462;2023-12-07T02:22:36;8.67;;;5.20;;
31746;SDS011;18319;48.974;8.462;2023-12-07T02:25:08;7.87;;;5.27;;
31746;SDS011;18319;48.974;8.462;2023-12-07T02:27:40;6.90;;;5.00;;
31746;SDS011;18319;48.974;8.462;2023-12-07T02:30:09;9.23;;;5.23;;
31746;SDS011;18319;48.974;8.462;2023-12-07T02:32:36;6.33;;;5.43;;
31746;SDS011;18319;48.974;8.462;2023-12-07T02:35:04;7.93;;;4.90;;
31746;SDS011;18319;48.974;8.462;2023-12-07T02:37:33;5.60;;;4.70;;
31746;SDS011;18319;48.974;8.462;2023-12-07T02:40:02;7.33;;;4.33;;
31746;SDS011;18319;48.974;8.462;2023-12-07T02:42:30;5.50;;;4.93;;
31746;SDS011;18319;48.974;8.462;2023-12-07T02:45:00;7.27;;;5.47;;
31746;SDS011;18319;48.974;8.462;2023-12-07T02:47:29;9.00;;;5.87;;
31746;SDS011;18319;48.974;8.462;2023-12-07T02:49:55;4.93;;;4.10;;
31746;SDS011;18319;48.974;8.462;2023-12-07T02:52:22;8.93;;;4.70;;
31746;SDS011;18319;48.974;8.462;2023-12-07T02:54:49;5.50;;;4.90;;
31746;SDS011;18319;48.974;8.462;2023-12-07T02:57:16;8.10;;;5.17;;
31746;SDS011;18319;48.974;8.462;2023-12-07T02:59:42;6.63;;;5.10;;
31746;SDS011;18319;48.974;8.462;2023-12-07T03:02:10;9.53;;;5.87;;
31746;SDS011;18319;48.974;8.462;2023-12-07T03:04:37;7.17;;;5.17;;
31746;SDS011;18319;48.974;8.462;2023-12-07T03:07:04;7.87;;;5.30;;
31746;SDS011;18319;48.974;8.462;2023-12-07T03:09:31;6.33;;;5.00;;
31746;SDS011;18319;48.974;8.462;2023-12-07T03:11:58;6.10;;;5.17;;
31746;SDS011;18319;48.974;8.462;2023-12-07T03:14:24;6.87;;;5.80;;
31746;SDS011;18319;48.974;8.462;2023-12-07T03:16:51;7.53;;;5.50;;
31746;SDS011;18319;48.974;8.462;2023-12-07T03:19:19;5.87;;;5.30;;
31746;SDS011;18319;48.974;8.462;2023-12-07T03:21:46;7.20;;;5.47;;
31746;SDS011;18319;48.974;8.462;2023-12-07T03:24:13;8.00;;;5.20;;
31746;SDS011;18319;48.974;8.462;2023-12-07T03:26:40;5.90;;;5.07;;
31746;SDS011;18319;48.974;8.462;2023-12-07T03:29:07;10.40;;;5.83;;
31746;SDS011;18319;48.974;8.462;2023-12-07T03:31:33;7.83;;;5.30;;
31746;SDS011;18319;48.974;8.462;2023-12-07T03:34:00;6.33;;;5.57;;
31746;SDS011;18319;48.974;8.462;2023-12-07T03:36:29;8.53;;;5.70;;
31746;SDS011;18319;48.974;8.462;2023-12-07T03:38:59;6.93;;;5.50;;
31746;SDS011;18319;48.974;8.462;2023-12-07T03:41:26;7.57;;;4.87;;
31746;SDS011;18319;48.974;8.462;2023-12-07T03:43:52;6.33;;;5.40;;
31746;SDS011;18319;48.974;8.462;2023-12-07T03:46:19;7.37;;;5.33;;
31746;SDS011;18319;48.974;8.462;2023-12-07T03:48:46;7.47;;;5.97;;
31746;SDS011;18319;48.974;8.462;2023-12-07T03:51:13;7.67;;;5.77;;
31746;SDS011;18319;48.974;8.462;2023-12-07T03:53:42;7.60;;;5.57;;
31746;SDS011;18319;48.974;8.462;2023-12-07T03:56:21;6.77;;;5.73;;
31746;SDS011;18319;48.974;8.462;2023-12-07T03:58:49;7.93;;;6.00;;
31746;SDS011;18319;48.974;8.462;2023-12-07T04:01:16;8.77;;;6.07;;
31746;SDS011;18319;48.974;8.462;2023-12-07T04:03:42;8.63;;;5.97;;
31746;SDS011;18319;48.974;8.462;2023-12-07T04:06:11;9.30;;;5.83;;
31746;SDS011;18319;48.974;8.462;2023-12-07T04:08:38;9.57;;;6.03;;
31746;SDS011;18319;48.974;8.462;2023-12-07T04:11:06;7.80;;;5.83;;
31746;SDS011;18319;48.974;8.462;2023-12-07T04:13:33;7.80;;;5.33;;
31746;SDS011;18319;48.974;8.462;2023-12-07T04:16:00;7.87;;;5.77;;
31746;SDS011;18319;48.974;8.462;2023-12-07T04:18:29;10.43;;;6.30;;
31746;SDS011;18319;48.974;8.462;2023-12-07T04:20:56;7.60;;;6.10;;
31746;SDS011;18319;48.974;8.462;2023-12-07T04:23:22;8.53;;;6.37;;
31746;SDS011;18319;48.974;8.462;2023-12-07T04:25:49;7.63;;;5.70;;
31746;SDS011;18319;48.974;8.462;2023-12-07T04:28:17;9.73;;;5.57;;
31746;SDS011;18319;48.974;8.462;2023-12-07T04:30:44;8.10;;;5.63;;
31746;SDS011;18319;48.974;8.462;2023-12-07T04:33:14;8.77;;;5.80;;
31746;SDS011;18319;48.974;8.462;2023-12-07T04:35:41;10.17;;;5.87;;
31746;SDS011;18319;48.974;8.462;2023-12-07T04:38:07;9.53;;;5.57;;
31746;SDS011;18319;48.974;8.462;2023-12-07T04:40:34;6.33;;;5.57;;
31746;SDS011;18319;48.974;8.462;2023-12-07T04:43:01;6.97;;;5.37;;
31746;SDS011;18319;48.974;8.462;2023-12-07T04:45:29;6.50;;;5.00;;
31746;SDS011;18319;48.974;8.462;2023-12-07T04:47:58;8.60;;;6.10;;
31746;SDS011;18319;48.974;8.462;2023-12-07T04:50:25;6.70;;;4.50;;
31746;SDS011;18319;48.974;8.462;2023-12-07T04:52:52;6.63;;;5.50;;
31746;SDS011;18319;48.974;8.462;2023-12-07T04:55:22;6.60;;;5.67;;
31746;SDS011;18319;48.974;8.462;2023-12-07T04:57:49;8.87;;;5.50;;
31746;SDS011;18319;48.974;8.462;2023-12-07T05:00:15;5.67;;;5.17;;
31746;SDS011;18319;48.974;8.462;2023-12-07T05:02:44;9.53;;;5.50;;
31746;SDS011;18319;48.974;8.462;2023-12-07T05:05:10;5.63;;;4.80;;
31746;SDS011;18319;48.974;8.462;2023-12-07T05:07:38;6.57;;;5.40;;
31746;SDS011;18319;48.974;8.462;2023-12-07T05:10:04;7.37;;;5.00;;
31746;SDS011;18319;48.974;8.462;2023-12-07T05:12:32;5.63;;;4.50;;
31746;SDS011;18319;48.974;8.462;2023-12-07T05:14:58;7.20;;;5.07;;
31746;SDS011;18319;48.974;8.462;2023-12-07T05:17:25;7.57;;;5.50;;
31746;SDS011;18319;48.974;8.462;2023-12-07T05:19:53;5.33;;;4.83;;
31746;SDS011;18319;48.974;8.462;2023-12-07T05:22:20;5.90;;;4.87;;
31746;SDS011;18319;48.974;8.462;2023-12-07T05:24:48;5.87;;;4.93;;
31746;SDS011;18319;48.974;8.462;2023-12-07T05:27:15;9.43;;;5.87;;
31746;SDS011;18319;48.974;8.462;2023-12-07T05:29:42;8.90;;;6.20;;
31746;SDS011;18319;48.974;8.462;2023-12-07T05:32:09;6.67;;;6.07;;
31746;SDS011;18319;48.974;8.462;2023-12-07T05:34:36;7.90;;;5.40;;
31746;SDS011;18319;48.974;8.462;2023-12-07T05:37:07;7.60;;;6.17;;
31746;SDS011;18319;48.974;8.462;2023-12-07T05:39:36;8.40;;;5.57;;
31746;SDS011;18319;48.974;8.462;2023-12-07T05:42:03;8.03;;;6.17;;
31746;SDS011;18319;48.974;8.462;2023-12-07T05:44:30;5.83;;;4.97;;
31746;SDS011;18319;48.974;8.462;2023-12-07T05:46:57;6.10;;;5.33;;
31746;SDS011;18319;48.974;8.462;2023-12-07T05:49:24;9.20;;;4.40;;
31746;SDS011;18319;48.974;8.462;2023-12-07T05:51:50;7.63;;;4.93;;
31746;SDS011;18319;48.974;8.462;2023-12-07T05:54:21;6.53;;;4.97;;
31746;SDS011;18319;48.974;8.462;2023-12-07T05:56:48;8.30;;;4.83;;
31746;SDS011;18319;48.974;8.462;2023-12-07T05:59:15;7.93;;;4.07;;
31746;SDS011;18319;48.974;8.462;2023-12-07T06:01:41;8.97;;;5.03;;
31746;SDS011;18319;48.974;8.462;2023-12-07T06:04:09;5.20;;;4.70;;
31746;SDS011;18319;48.974;8.462;2023-12-07T06:06:37;5.73;;;4.87;;
31746;SDS011;18319;48.974;8.462;2023-12-07T06:09:04;5.50;;;5.00;;
31746;SDS011;18319;48.974;8.462;2023-12-07T06:11:32;4.60;;;4.10;;
31746;SDS011;18319;48.974;8.462;2023-12-07T06:13:59;8.27;;;4.67;;
31746;SDS011;18319;48.974;8.462;2023-12-07T06:16:26;5.70;;;4.50;;
31746;SDS011;18319;48.974;8.462;2023-12-07T06:18:53;5.53;;;4.13;;
31746;SDS011;18319;48.974;8.462;2023-12-07T06:21:20;6.53;;;5.40;;
31746;SDS011;18319;48.974;8.462;2023-12-07T06:23:46;6.47;;;4.80;;
31746;SDS011;18319;48.974;8.462;2023-12-07T06:26:13;5.73;;;4.27;;
31746;SDS011;18319;48.974;8.462;2023-12-07T06:28:41;6.23;;;4.03;;
31746;SDS011;18319;48.974;8.462;2023-12-07T06:31:09;6.93;;;4.30;;
31746;SDS011;18319;48.974;8.462;2023-12-07T06:33:40;6.03;;;5.43;;
31746;SDS011;18319;48.974;8.462;2023-12-07T06:36:07;5.93;;;3.93;;
31746;SDS011;18319;48.974;8.462;2023-12-07T06:38:34;4.53;;;4.10;;
31746;SDS011;18319;48.974;8.462;2023-12-07T06:41:04;4.23;;;3.83;;
31746;SDS011;18319;48.974;8.462;2023-12-07T06:43:30;4.17;;;3.77;;
31746;SDS011;18319;48.974;8.462;2023-12-07T06:45:59;5.83;;;5.27;;
31746;SDS011;18319;48.974;8.462;2023-12-07T06:48:25;8.27;;;5.80;;
31746;SDS011;18319;48.974;8.462;2023-12-07T06:50:52;5.70;;;4.00;;
31746;SDS011;18319;48.974;8.462;2023-12-07T06:53:19;3.57;;;3.20;;
31746;SDS011;18319;48.974;8.462;2023-12-07T06:55:45;3.70;;;3.40;;
31746;SDS011;18319;48.974;8.462;2023-12-07T06:58:12;4.50;;;3.73;;
31746;SDS011;18319;48.974;8.462;2023-12-07T07:00:39;5.40;;;3.57;;
31746;SDS011;18319;48.974;8.462;2023-12-07T07:03:07;4.27;;;3.83;;
31746;SDS011;18319;48.974;8.462;2023-12-07T07:05:34;3.57;;;3.27;;
31746;SDS011;18319;48.974;8.462;2023-12-07T07:08:01;4.20;;;3.90;;
31746;SDS011;18319;48.974;8.462;2023-12-07T07:10:27;3.77;;;3.47;;
31746;SDS011;18319;48.974;8.462;2023-12-07T07:12:54;4.07;;;3.67;;
31746;SDS011;18319;48.974;8.462;2023-12-07T07:15:21;3.20;;;2.90;;
31746;SDS011;18319;48.974;8.462;2023-12-07T07:17:50;3.97;;;3.23;;
31746;SDS011;18319;48.974;8.462;2023-12-07T07:20:18;5.57;;;3.50;;
31746;SDS011;18319;48.974;8.462;2023-12-07T07:22:45;4.07;;;3.23;;
31746;SDS011;18319;48.974;8.462;2023-12-07T07:25:12;4.47;;;3.70;;
31746;SDS011;18319;48.974;8.462;2023-12-07T07:27:40;4.33;;;3.30;;
31746;SDS011;18319;48.974;8.462;2023-12-07T07:30:07;6.03;;;3.73;;
31746;SDS011;18319;48.974;8.462;2023-12-07T07:32:35;7.60;;;4.07;;
31746;SDS011;18319;48.974;8.462;2023-12-07T07:35:02;5.37;;;4.40;;
31746;SDS011;18319;48.974;8.462;2023-12-07T07:37:30;5.53;;;4.33;;
31746;SDS011;18319;48.974;8.462;2023-12-07T07:39:57;4.47;;;4.07;;
31746;SDS011;18319;48.974;8.462;2023-12-07T07:42:24;5.63;;;4.60;;
31746;SDS011;18319;48.974;8.462;2023-12-07T07:44:51;4.53;;;4.13;;
31746;SDS011;18319;48.974;8.462;2023-12-07T07:47:21;6.20;;;4.97;;
31746;SDS011;18319;48.974;8.462;2023-12-07T07:49:50;5.97;;;4.10;;
31746;SDS011;18319;48.974;8.462;2023-12-07T07:52:17;4.40;;;4.00;;
31746;SDS011;18319;48.974;8.462;2023-12-07T07:54:45;5.57;;;5.07;;
31746;SDS011;18319;48.974;8.462;2023-12-07T07:57:12;5.60;;;4.17;;
31746;SDS011;18319;48.974;8.462;2023-12-07T07:59:39;5.17;;;4.37;;
31746;SDS011;18319;48.974;8.462;2023-12-07T08:02:06;4.10;;;3.70;;
31746;SDS011;18319;48.974;8.462;2023-12-07T08:04:32;6.60;;;4.00;;
31746;SDS011;18319;48.974;8.462;2023-12-07T08:06:59;6.13;;;3.97;;
31746;SDS011;18319;48.974;8.462;2023-12-07T08:09:26;6.60;;;4.90;;
31746;SDS011;18319;48.974;8.462;2023-12-07T08:11:54;6.10;;;4.40;;
31746;SDS011;18319;48.974;8.462;2023-12-07T08:14:21;5.07;;;4.33;;
31746;SDS011;18319;48.974;8.462;2023-12-07T08:16:47;6.80;;;4.97;;
31746;SDS011;18319;48.974;8.462;2023-12-07T08:19:14;5.27;;;4.43;;
31746;SDS011;18319;48.974;8.462;2023-12-07T08:21:41;5.47;;;4.60;;
31746;SDS011;18319;48.974;8.462;2023-12-07T08:24:08;6.07;;;4.93;;
31746;SDS011;18319;48.974;8.462;2023-12-07T08:26:34;5.67;;;4.87;;
31746;SDS011;18319;48.974;8.462;2023-12-07T08:29:03;5.97;;;4.77;;
31746;SDS011;18319;48.974;8.462;2023-12-07T08:31:29;6.63;;;4.93;;
31746;SDS011;18319;48.974;8.462;2023-12-07T08:33:56;7.53;;;5.53;;
31746;SDS011;18319;48.974;8.462;2023-12-07T08:36:23;6.47;;;3.93;;
31746;SDS011;18319;48.974;8.462;2023-12-07T08:38:50;6.63;;;5.20;;
31746;SDS011;18319;48.974;8.462;2023-12-07T08:41:17;6.53;;;4.93;;
31746;SDS011;18319;48.974;8.462;2023-12-07T08:43:44;6.47;;;4.37;;
31746;SDS011;18319;48.974;8.462;2023-12-07T08:46:13;5.37;;;4.50;;
31746;SDS011;18319;48.974;8.462;2023-12-07T08:48:40;4.97;;;4.47;;
31746;SDS011;18319;48.974;8.462;2023-12-07T08:51:08;5.27;;;4.73;;
31746;SDS011;18319;48.974;8.462;2023-12-07T08:53:34;7.17;;;5.03;;
31746;SDS011;18319;48.974;8.462;2023-12-07T08:56:01;6.23;;;4.77;;
31746;SDS011;18319;48.974;8.462;2023-12-07T08:58:28;6.33;;;4.50;;
31746;SDS011;18319;48.974;8.462;2023-12-07T09:00:55;6.83;;;4.90;;
31746;SDS011;18319;48.974;8.462;2023-12-07T09:03:23;8.60;;;5.43;;
31746;SDS011;18319;48.974;8.462;2023-12-07T09:05:56;6.63;;;4.73;;
31746;SDS011;18319;48.974;8.462;2023-12-07T09:08:23;5.03;;;4.30;;
31746;SDS011;18319;48.974;8.462;2023-12-07T09:10:50;6.53;;;4.70;;
31746;SDS011;18319;48.974;8.462;2023-12-07T09:13:17;4.57;;;4.00;;
31746;SDS011;18319;48.974;8.462;2023-12-07T09:15:46;5.30;;;4.80;;
31746;SDS011;18319;48.974;8.462;2023-12-07T09:18:13;4.60;;;4.20;;
31746;SDS011;18319;48.974;8.462;2023-12-07T09:20:41;4.70;;;4.27;;
31746;SDS011;18319;48.974;8.462;2023-12-07T09:23:11;6.23;;;4.47;;
31746;SDS011;18319;48.974;8.462;2023-12-07T09:25:37;7.70;;;4.37;;
31746;SDS011;18319;48.974;8.462;2023-12-07T09:28:05;6.93;;;4.33;;
31746;SDS011;18319;48.974;8.462;2023-12-07T09:30:33;5.80;;;4.83;;
31746;SDS011;18319;48.974;8.462;2023-12-07T09:33:00;8.23;;;5.97;;
31746;SDS011;18319;48.974;8.462;2023-12-07T09:35:28;7.93;;;4.80;;
31746;SDS011;18319;48.974;8.462;2023-12-07T09:37:56;5.30;;;4.80;;
31746;SDS011;18319;48.974;8.462;2023-12-07T09:40:23;7.53;;;4.97;;
31746;SDS011;18319;48.974;8.462;2023-12-07T09:42:50;5.53;;;4.40;;
31746;SDS011;18319;48.974;8.462;2023-12-07T09:45:18;5.27;;;4.77;;
31746;SDS011;18319;48.974;8.462;2023-12-07T09:47:46;5.47;;;4.90;;
31746;SDS011;18319;48.974;8.462;2023-12-07T09:50:15;5.63;;;4.93;;
31746;SDS011;18319;48.974;8.462;2023-12-07T09:52:43;5.03;;;4.63;;
31746;SDS011;18319;48.974;8.462;2023-12-07T09:55:11;5.37;;;4.97;;
31746;SDS011;18319;48.974;8.462;2023-12-07T09:57:42;5.70;;;4.57;;
31746;SDS011;18319;48.974;8.462;2023-12-07T10:00:09;7.13;;;6.20;;
31746;SDS011;18319;48.974;8.462;2023-12-07T10:02:39;5.93;;;5.33;;
31746;SDS011;18319;48.974;8.462;2023-12-07T10:05:08;7.10;;;4.90;;
31746;SDS011;18319;48.974;8.462;2023-12-07T10:07:39;8.77;;;4.87;;
31746;SDS011;18319;48.974;8.462;2023-12-07T10:10:07;5.73;;;4.83;;
31746;SDS011;18319;48.974;8.462;2023-12-07T10:12:43;5.40;;;4.57;;
31746;SDS011;18319;48.974;8.462;2023-12-07T10:15:12;5.50;;;4.47;;
31746;SDS011;18319;48.974;8.462;2023-12-07T10:17:43;5.03;;;4.63;;
31746;SDS011;18319;48.974;8.462;2023-12-07T10:20:14;4.80;;;4.17;;
31746;SDS011;18319;48.974;8.462;2023-12-07T10:22:42;6.13;;;4.77;;
31746;SDS011;18319;48.974;8.462;2023-12-07T10:25:10;5.03;;;4.30;;
31746;SDS011;18319;48.974;8.462;2023-12-07T10:27:39;7.77;;;4.67;;
31746;SDS011;18319;48.974;8.462;2023-12-07T10:30:08;6.60;;;4.70;;
31746;SDS011;18319;48.974;8.462;2023-12-07T10:32:36;5.27;;;4.77;;
31746;SDS011;18319;48.974;8.462;2023-12-07T10:35:06;4.67;;;4.20;;
31746;SDS011;18319;48.974;8.462;2023-12-07T10:37:34;6.20;;;4.80;;
31746;SDS011;18319;48.974;8.462;2023-12-07T10:40:01;4.73;;;4.40;;
31746;SDS011;18319;48.974;8.462;2023-12-07T10:42:31;6.33;;;4.73;;
31746;SDS011;18319;48.974;8.462;2023-12-07T10:45:03;5.27;;;4.50;;
31746;SDS011;18319;48.974;8.462;2023-12-07T10:47:32;5.30;;;4.83;;
31746;SDS011;18319;48.974;8.462;2023-12-07T10:50:02;4.47;;;4.07;;
31746;SDS011;18319;48.974;8.462;2023-12-07T10:52:36;4.17;;;3.60;;
31746;SDS011;18319;48.974;8.462;2023-12-07T10:55:05;3.73;;;3.43;;
31746;SDS011;18319;48.974;8.462;2023-12-07T10:57:36;3.13;;;2.83;;
31746;SDS011;18319;48.974;8.462;2023-12-07T11:00:06;4.00;;;3.60;;
31746;SDS011;18319;48.974;8.462;2023-12-07T11:02:34;3.73;;;3.07;;
31746;SDS011;18319;48.974;8.462;2023-12-07T11:05:02;4.03;;;3.33;;
31746;SDS011;18319;48.974;8.462;2023-12-07T11:07:32;2.67;;;2.47;;
31746;SDS011;18319;48.974;8.462;2023-12-07T11:10:05;3.80;;;3.53;;
31746;SDS011;18319;48.974;8.462;2023-12-07T11:12:42;2.83;;;2.63;;
31746;SDS011;18319;48.974;8.462;2023-12-07T11:15:16;2.27;;;2.10;;
31746;SDS011;18319;48.974;8.462;2023-12-07T11:17:50;2.90;;;2.70;;
31746;SDS011;18319;48.974;8.462;2023-12-07T11:20:18;2.87;;;2.60;;
31746;SDS011;18319;48.974;8.462;2023-12-07T11:22:46;2.57;;;2.37;;
31746;SDS011;18319;48.974;8.462;2023-12-07T11:25:14;2.60;;;2.40;;
31746;SDS011;18319;48.974;8.462;2023-12-07T11:27:43;2.90;;;2.63;;
31746;SDS011;18319;48.974;8.462;2023-12-07T11:30:12;3.23;;;2.93;;
31746;SDS011;18319;48.974;8.462;2023-12-07T11:32:41;3.47;;;3.17;;
31746;SDS011;18319;48.974;8.462;2023-12-07T11:35:11;2.83;;;2.63;;
31746;SDS011;18319;48.974;8.462;2023-12-07T11:40:29;2.37;;;2.23;;
31746;SDS011;18319;48.974;8.462;2023-12-07T11:42:59;3.70;;;3.40;;
31746;SDS011;18319;48.974;8.462;2023-12-07T11:45:36;3.70;;;3.40;;
31746;SDS011;18319;48.974;8.462;2023-12-07T11:48:15;3.23;;;3.03;;
31746;SDS011;18319;48.974;8.462;2023-12-07T11:50:53;4.77;;;4.37;;
31746;SDS011;18319;48.974;8.462;2023-12-07T11:53:22;3.20;;;3.00;;
31746;SDS011;18319;48.974;8.462;2023-12-07T11:55:50;3.83;;;3.37;;
31746;SDS011;18319;48.974;8.462;2023-12-07T11:58:16;6.70;;;5.30;;
31746;SDS011;18319;48.974;8.462;2023-12-07T12:00:46;9.40;;;8.40;;
31746;SDS011;18319;48.974;8.462;2023-12-07T12:03:14;7.30;;;5.93;;
31746;SDS011;18319;48.974;8.462;2023-12-07T12:05:41;2.60;;;2.40;;
31746;SDS011;18319;48.974;8.462;2023-12-07T12:08:09;3.03;;;2.40;;
31746;SDS011;18319;48.974;8.462;2023-12-07T12:10:36;2.33;;;1.90;;
31746;SDS011;18319;48.974;8.462;2023-12-07T12:13:03;2.73;;;2.20;;
31746;SDS011;18319;48.974;8.462;2023-12-07T12:15:30;1.40;;;1.37;;
31746;SDS011;18319;48.974;8.462;2023-12-07T12:17:58;1.67;;;1.37;;
31746;SDS011;18319;48.974;8.462;2023-12-07T12:20:27;1.77;;;1.60;;
31746;SDS011;18319;48.974;8.462;2023-12-07T12:22:54;1.30;;;1.20;;
31746;SDS011;18319;48.974;8.462;2023-12-07T12:25:21;1.97;;;1.47;;
31746;SDS011;18319;48.974;8.462;2023-12-07T12:27:50;1.60;;;1.50;;
31746;SDS011;18319;48.974;8.462;2023-12-07T12:30:19;1.33;;;1.23;;
31746;SDS011;18319;48.974;8.462;2023-12-07T12:32:47;2.00;;;1.87;;
31746;SDS011;18319;48.974;8.462;2023-12-07T12:35:15;1.80;;;1.70;;
31746;SDS011;18319;48.974;8.462;2023-12-07T12:37:44;1.40;;;1.30;;
31746;SDS011;18319;48.974;8.462;2023-12-07T12:40:14;1.77;;;1.67;;
31746;SDS011;18319;48.974;8.462;2023-12-07T12:42:43;1.77;;;1.40;;
31746;SDS011;18319;48.974;8.462;2023-12-07T12:45:12;1.17;;;1.10;;
31746;SDS011;18319;48.974;8.462;2023-12-07T12:47:40;1.73;;;1.20;;
31746;SDS011;18319;48.974;8.462;2023-12-07T12:50:08;2.73;;;1.60;;
31746;SDS011;18319;48.974;8.462;2023-12-07T12:52:36;1.77;;;1.67;;
31746;SDS011;18319;48.974;8.462;2023-12-07T12:55:07;1.63;;;1.53;;
31746;SDS011;18319;48.974;8.462;2023-12-07T12:57:36;1.80;;;1.70;;
31746;SDS011;18319;48.974;8.462;2023-12-07T13:00:04;1.93;;;1.60;;
31746;SDS011;18319;48.974;8.462;2023-12-07T13:02:32;1.50;;;1.40;;
31746;SDS011;18319;48.974;8.462;2023-12-07T13:04:59;2.17;;;1.97;;
31746;SDS011;18319;48.974;8.462;2023-12-07T13:07:25;1.70;;;1.60;;
31746;SDS011;18319;48.974;8.462;2023-12-07T13:09:52;1.80;;;1.70;;
31746;SDS011;18319;48.974;8.462;2023-12-07T13:12:21;2.07;;;1.90;;
31746;SDS011;18319;48.974;8.462;2023-12-07T13:14:48;2.43;;;2.30;;
31746;SDS011;18319;48.974;8.462;2023-12-07T13:17:15;2.37;;;2.17;;
31746;SDS011;18319;48.974;8.462;2023-12-07T13:19:42;1.80;;;1.70;;
31746;SDS011;18319;48.974;8.462;2023-12-07T13:22:09;2.13;;;1.93;;
31746;SDS011;18319;48.974;8.462;2023-12-07T13:24:36;12.67;;;5.87;;
31746;SDS011;18319;48.974;8.462;2023-12-07T13:27:03;34.43;;;12.37;;
31746;SDS011;18319;48.974;8.462;2023-12-07T13:29:31;6.47;;;4.80;;
31746;SDS011;18319;48.974;8.462;2023-12-07T13:31:58;7.27;;;6.57;;
31746;SDS011;18319;48.974;8.462;2023-12-07T13:34:25;2.63;;;2.37;;
31746;SDS011;18319;48.974;8.462;2023-12-07T13:36:52;2.67;;;2.47;;
31746;SDS011;18319;48.974;8.462;2023-12-07T13:39:19;3.40;;;3.07;;
31746;SDS011;18319;48.974;8.462;2023-12-07T13:41:46;2.37;;;2.27;;
31746;SDS011;18319;48.974;8.462;2023-12-07T13:44:14;2.17;;;2.00;;
31746;SDS011;18319;48.974;8.462;2023-12-07T13:46:47;6.47;;;3.00;;
31746;SDS011;18319;48.974;8.462;2023-12-07T13:49:14;4.53;;;2.67;;
31746;SDS011;18319;48.974;8.462;2023-12-07T13:51:41;3.10;;;2.13;;
31746;SDS011;18319;48.974;8.462;2023-12-07T13:54:08;2.70;;;2.50;;
31746;SDS011;18319;48.974;8.462;2023-12-07T13:56:34;3.00;;;2.57;;
31746;SDS011;18319;48.974;8.462;2023-12-07T13:59:01;1.77;;;1.67;;
31746;SDS011;18319;48.974;8.462;2023-12-07T14:01:28;1.83;;;1.73;;
31746;SDS011;18319;48.974;8.462;2023-12-07T14:04:01;3.20;;;2.90;;
31746;SDS011;18319;48.974;8.462;2023-12-07T14:06:28;4.03;;;3.73;;
31746;SDS011;18319;48.974;8.462;2023-12-07T14:08:54;2.73;;;2.53;;
31746;SDS011;18319;48.974;8.462;2023-12-07T14:11:21;2.90;;;2.70;;
31746;SDS011;18319;48.974;8.462;2023-12-07T14:13:48;3.63;;;2.40;;
31746;SDS011;18319;48.974;8.462;2023-12-07T14:16:18;2.93;;;2.63;;
31746;SDS011;18319;48.974;8.462;2023-12-07T14:18:51;2.80;;;2.53;;
31746;SDS011;18319;48.974;8.462;2023-12-07T14:21:22;2.30;;;2.10;;
31746;SDS011;18319;48.974;8.462;2023-12-07T14:23:52;1.87;;;1.77;;
31746;SDS011;18319;48.974;8.462;2023-12-07T14:26:20;2.93;;;2.63;;
31746;SDS011;18319;48.974;8.462;2023-12-07T14:28:46;2.30;;;2.10;;
31746;SDS011;18319;48.974;8.462;2023-12-07T14:31:13;4.80;;;2.70;;
31746;SDS011;18319;48.974;8.462;2023-12-07T14:33:42;2.60;;;2.00;;
31746;SDS011;18319;48.974;8.462;2023-12-07T14:36:09;2.77;;;2.57;;
31746;SDS011;18319;48.974;8.462;2023-12-07T14:38:39;3.90;;;3.50;;
31746;SDS011;18319;48.974;8.462;2023-12-07T14:41:06;2.00;;;1.90;;
31746;SDS011;18319;48.974;8.462;2023-12-07T14:43:36;2.33;;;2.20;;
31746;SDS011;18319;48.974;8.462;2023-12-07T14:46:03;2.67;;;2.47;;
31746;SDS011;18319;48.974;8.462;2023-12-07T14:48:32;3.07;;;2.83;;
31746;SDS011;18319;48.974;8.462;2023-12-07T14:50:59;2.73;;;2.57;;
31746;SDS011;18319;48.974;8.462;2023-12-07T14:53:26;4.67;;;2.60;;
31746;SDS011;18319;48.974;8.462;2023-12-07T14:55:54;2.10;;;2.00;;